This demonstration page uses our WeatherBlox Daily Observations layout. Learn more.

41.55636, -103.73856

Hourly Observations for July 1, 2019

Temp ( °F °C ) Dew Point ( °F °C ) Humidity (%) Winds ( mph kmh ) Pressure ( in mb ) Visibility ( mi km ) Precip ( " mm )
1:58 am 01:58 Mostly Cloudy with Nearby Thunderstorms 74 23.2 60 15.3 61 61 NNE 8 13 29.93 1014 10 16.0934 0 0
4:58 am 04:58 Mostly Cloudy 62 16.6 60 15.4 93 93 ESE 8 13 30.02 1017 10 16.0934 0 0
5:58 am 05:58 Mostly Cloudy with Light Showers 63 17.3 60 15.3 88 88 S 9 15 30 1016 10 16.0934 0.01 0.254
6:58 am 06:58 Partly Cloudy 61 16.3 58 14.7 90 90 SSW 9 15 29.97 1015 10 16.0934 0 0
7:58 am 07:58 Clear 60 15.8 58 14.2 90 90 SSW 9 15 29.95 1014 10 16.0934 0 0
8:58 am 08:58 Clear 62 16.7 56 13.4 81 81 WSW 12 19 29.94 1014 10 16.0934 0 0
10:58 am 10:58 Mostly Cloudy 62 16.5 54 12.3 76 76 WNW 13 20 29.95 1014 10 16.0934 0 0
11:58 am 11:58 Cloudy 62 16.5 54 12.1 75 75 W 8 13 29.96 1015 10 16.0934 0 0
12:58 pm 12:58 Mostly Cloudy 64 17.8 54 12.1 69 69 N 16 26 29.98 1015 10 16.0934 0 0
1:58 pm 13:58 Mostly Cloudy with Mist and Fog 62 16.7 59 15 90 90 E 13 20 30.01 1016 4 6.43736 0 0
2:58 pm 14:58 Mostly Cloudy 61 15.9 58 14.7 93 93 ENE 7 11 30.06 1018 10 16.0934 0 0
3:58 pm 15:58 Mostly Cloudy 63 17.1 58 14.3 84 84 NE 3 6 30.05 1018 10 16.0934 0 0
4:58 pm 16:58 Partly Cloudy 69 20.3 60 15.5 74 74 NNE 9 15 30.04 1017 10 16.0934 0 0
5:58 pm 17:58 Mostly Sunny 71 21.4 59 15.2 68 68 NNE 10 17 30.04 1017 10 16.0934 0 0
6:58 pm 18:58 Partly Cloudy 73 22.6 59 14.9 62 62 N 10 17 30 1016 10 16.0934 0 0
7:58 pm 19:58 Sunny 74 23.5 60 15.5 61 61 N 6 9 29.99 1016 10 16.0934 0 0
8:58 pm 20:58 Sunny 76 24.6 55 12.5 47 47 NE 6 9 29.96 1014 10 16.0934 0 0
9:58 pm 21:58 Sunny 76 24.7 54 12.4 46 46 NE 6 9 29.96 1015 10 16.0934 0 0
10:58 pm 22:58 Sunny 75 23.8 55 12.6 50 50 E 6 9 29.95 1014 10 16.0934 0 0
11:58 pm 23:58 Mostly Cloudy 72 22.1 58 14.4 62 62 SE 3 6 29.96 1015 10 16.0934 0 0

Powered by AerisWeather